sensor_id;sensor_type;location;lat;lon;timestamp;noise_LAeq;noise_LA_min;noise_LA_max;noise_LA01;noise_LA95
63692;Laerm;49838;51.798;10.954;2024-01-15T00:00:07;46.43;33.42;65.05;;
63692;Laerm;49838;51.798;10.954;2024-01-15T00:02:34;43.43;35.11;58.89;;
63692;Laerm;49838;51.798;10.954;2024-01-15T00:05:04;43.76;33.09;57.73;;
63692;Laerm;49838;51.798;10.954;2024-01-15T00:07:31;43.85;32.96;59.11;;
63692;Laerm;49838;51.798;10.954;2024-01-15T00:09:58;43.52;34.06;62.72;;
63692;Laerm;49838;51.798;10.954;2024-01-15T00:12:26;42.86;31.63;58.89;;
63692;Laerm;49838;51.798;10.954;2024-01-15T00:14:53;36.08;31.55;51.37;;
63692;Laerm;49838;51.798;10.954;2024-01-15T00:17:20;34.39;30.05;49.88;;
63692;Laerm;49838;51.798;10.954;2024-01-15T00:19:48;43.57;35.35;63.11;;
63692;Laerm;49838;51.798;10.954;2024-01-15T00:22:17;39.49;30.97;57.87;;
63692;Laerm;49838;51.798;10.954;2024-01-15T00:24:44;42.72;32.46;61.12;;
63692;Laerm;49838;51.798;10.954;2024-01-15T00:27:11;42.34;31.66;64.32;;
63692;Laerm;49838;51.798;10.954;2024-01-15T00:29:38;49.33;36.93;63.65;;
63692;Laerm;49838;51.798;10.954;2024-01-15T00:32:06;43.61;32.95;64.25;;
63692;Laerm;49838;51.798;10.954;2024-01-15T00:34:33;55.11;32.35;75.29;;
63692;Laerm;49838;51.798;10.954;2024-01-15T00:37:00;49.82;33.81;71.55;;
63692;Laerm;49838;51.798;10.954;2024-01-15T00:39:29;46.49;33.57;65.18;;
63692;Laerm;49838;51.798;10.954;2024-01-15T00:41:57;46.26;33.08;64.04;;
63692;Laerm;49838;51.798;10.954;2024-01-15T00:44:24;37.86;31.54;51.60;;
63692;Laerm;49838;51.798;10.954;2024-01-15T00:46:51;39.27;32.20;53.29;;
63692;Laerm;49838;51.798;10.954;2024-01-15T00:49:18;41.11;31.34;58.39;;
63692;Laerm;49838;51.798;10.954;2024-01-15T00:51:47;35.74;30.89;53.57;;
63692;Laerm;49838;51.798;10.954;2024-01-15T00:54:14;35.45;30.42;50.26;;
63692;Laerm;49838;51.798;10.954;2024-01-15T00:56:42;42.59;30.85;61.81;;
63692;Laerm;49838;51.798;10.954;2024-01-15T00:59:10;35.69;30.79;45.97;;
63692;Laerm;49838;51.798;10.954;2024-01-15T01:01:40;43.35;30.58;62.21;;
63692;Laerm;49838;51.798;10.954;2024-01-15T01:04:09;34.68;29.65;56.34;;
63692;Laerm;49838;51.798;10.954;2024-01-15T01:06:36;41.77;29.50;63.21;;
63692;Laerm;49838;51.798;10.954;2024-01-15T01:09:03;37.81;30.73;52.23;;
63692;Laerm;49838;51.798;10.954;2024-01-15T01:11:31;39.82;30.02;59.44;;
63692;Laerm;49838;51.798;10.954;2024-01-15T01:13:59;35.61;28.96;59.01;;
63692;Laerm;49838;51.798;10.954;2024-01-15T01:16:27;37.34;29.42;55.49;;
63692;Laerm;49838;51.798;10.954;2024-01-15T01:18:55;40.42;31.66;58.78;;
63692;Laerm;49838;51.798;10.954;2024-01-15T01:21:22;35.86;30.31;51.73;;
63692;Laerm;49838;51.798;10.954;2024-01-15T01:23:49;34.57;30.01;47.63;;
63692;Laerm;49838;51.798;10.954;2024-01-15T01:26:17;35.72;32.08;42.20;;
63692;Laerm;49838;51.798;10.954;2024-01-15T01:28:44;34.25;30.18;40.58;;
63692;Laerm;49838;51.798;10.954;2024-01-15T01:31:13;33.12;29.31;45.75;;
63692;Laerm;49838;51.798;10.954;2024-01-15T01:33:42;38.34;29.48;61.31;;
63692;Laerm;49838;51.798;10.954;2024-01-15T01:36:09;44.53;32.14;72.15;;
63692;Laerm;49838;51.798;10.954;2024-01-15T01:38:37;39.73;31.55;57.85;;
63692;Laerm;49838;51.798;10.954;2024-01-15T01:41:04;40.73;33.02;54.85;;
63692;Laerm;49838;51.798;10.954;2024-01-15T01:43:32;38.80;30.56;54.02;;
63692;Laerm;49838;51.798;10.954;2024-01-15T01:46:00;45.59;36.12;64.76;;
63692;Laerm;49838;51.798;10.954;2024-01-15T01:48:30;53.49;35.34;79.39;;
63692;Laerm;49838;51.798;10.954;2024-01-15T01:51:00;43.18;34.52;58.30;;
63692;Laerm;49838;51.798;10.954;2024-01-15T01:53:29;46.45;34.52;68.55;;
63692;Laerm;49838;51.798;10.954;2024-01-15T01:55:58;46.33;34.90;63.75;;
63692;Laerm;49838;51.798;10.954;2024-01-15T01:58:25;47.33;34.03;63.60;;
63692;Laerm;49838;51.798;10.954;2024-01-15T02:00:53;45.04;34.69;66.95;;
63692;Laerm;49838;51.798;10.954;2024-01-15T02:03:20;43.42;33.89;63.84;;
63692;Laerm;49838;51.798;10.954;2024-01-15T02:05:49;43.18;33.92;65.97;;
63692;Laerm;49838;51.798;10.954;2024-01-15T02:08:17;42.53;33.50;54.52;;
63692;Laerm;49838;51.798;10.954;2024-01-15T02:10:44;45.06;34.61;65.13;;
63692;Laerm;49838;51.798;10.954;2024-01-15T02:13:12;45.39;34.13;67.08;;
63692;Laerm;49838;51.798;10.954;2024-01-15T02:15:40;42.31;35.45;54.27;;
63692;Laerm;49838;51.798;10.954;2024-01-15T02:18:07;43.45;33.80;58.40;;
63692;Laerm;49838;51.798;10.954;2024-01-15T02:20:35;45.50;35.18;62.20;;
63692;Laerm;49838;51.798;10.954;2024-01-15T02:23:11;41.28;33.14;59.58;;
63692;Laerm;49838;51.798;10.954;2024-01-15T02:25:40;49.60;33.23;72.48;;
63692;Laerm;49838;51.798;10.954;2024-01-15T02:28:09;52.66;37.90;71.41;;
63692;Laerm;49838;51.798;10.954;2024-01-15T02:30:38;47.39;35.26;60.61;;
63692;Laerm;49838;51.798;10.954;2024-01-15T02:33:06;40.92;34.68;58.59;;
63692;Laerm;49838;51.798;10.954;2024-01-15T02:35:33;38.36;32.96;50.79;;
63692;Laerm;49838;51.798;10.954;2024-01-15T02:38:03;48.08;32.77;70.26;;
63692;Laerm;49838;51.798;10.954;2024-01-15T02:40:31;45.35;37.17;61.80;;
63692;Laerm;49838;51.798;10.954;2024-01-15T02:42:58;43.14;35.85;58.42;;
63692;Laerm;49838;51.798;10.954;2024-01-15T02:45:27;46.40;34.26;66.31;;
63692;Laerm;49838;51.798;10.954;2024-01-15T02:47:54;38.86;34.26;50.14;;
63692;Laerm;49838;51.798;10.954;2024-01-15T02:50:21;45.70;36.03;65.39;;
63692;Laerm;49838;51.798;10.954;2024-01-15T02:52:49;48.82;33.62;70.54;;
63692;Laerm;49838;51.798;10.954;2024-01-15T02:55:16;49.30;34.59;71.99;;
63692;Laerm;49838;51.798;10.954;2024-01-15T02:57:45;52.10;38.27;69.27;;
63692;Laerm;49838;51.798;10.954;2024-01-15T03:00:12;49.36;37.24;66.75;;
63692;Laerm;49838;51.798;10.954;2024-01-15T03:02:40;48.38;35.69;65.50;;
63692;Laerm;49838;51.798;10.954;2024-01-15T03:05:09;44.10;34.30;64.00;;
63692;Laerm;49838;51.798;10.954;2024-01-15T03:07:36;46.24;35.99;63.42;;
63692;Laerm;49838;51.798;10.954;2024-01-15T03:10:05;50.24;38.62;68.33;;
63692;Laerm;49838;51.798;10.954;2024-01-15T03:12:32;49.91;40.58;65.44;;
63692;Laerm;49838;51.798;10.954;2024-01-15T03:15:01;49.63;36.89;66.90;;
63692;Laerm;49838;51.798;10.954;2024-01-15T03:17:28;48.62;36.76;66.74;;
63692;Laerm;49838;51.798;10.954;2024-01-15T03:19:55;47.43;37.44;68.55;;
63692;Laerm;49838;51.798;10.954;2024-01-15T03:22:23;51.61;36.67;75.28;;
63692;Laerm;49838;51.798;10.954;2024-01-15T03:24:50;49.27;39.92;62.91;;
63692;Laerm;49838;51.798;10.954;2024-01-15T03:27:17;47.38;38.48;70.33;;
63692;Laerm;49838;51.798;10.954;2024-01-15T03:29:44;49.27;41.41;62.47;;
63692;Laerm;49838;51.798;10.954;2024-01-15T03:32:13;57.36;40.09;76.89;;
63692;Laerm;49838;51.798;10.954;2024-01-15T03:34:42;44.97;36.79;59.72;;
63692;Laerm;49838;51.798;10.954;2024-01-15T03:37:09;48.40;36.65;63.65;;
63692;Laerm;49838;51.798;10.954;2024-01-15T03:39:36;48.84;40.34;64.66;;
63692;Laerm;49838;51.798;10.954;2024-01-15T03:42:04;48.68;37.44;66.40;;
63692;Laerm;49838;51.798;10.954;2024-01-15T03:44:31;45.89;37.71;62.73;;
63692;Laerm;49838;51.798;10.954;2024-01-15T03:46:58;44.51;37.89;59.51;;
63692;Laerm;49838;51.798;10.954;2024-01-15T03:49:28;49.62;37.95;62.82;;
63692;Laerm;49838;51.798;10.954;2024-01-15T03:51:55;51.93;42.26;72.81;;
63692;Laerm;49838;51.798;10.954;2024-01-15T03:54:22;53.41;40.80;70.65;;
63692;Laerm;49838;51.798;10.954;2024-01-15T03:56:50;56.43;41.74;78.61;;
63692;Laerm;49838;51.798;10.954;2024-01-15T03:59:17;53.69;44.09;73.02;;
63692;Laerm;49838;51.798;10.954;2024-01-15T04:01:48;51.46;43.23;70.78;;
63692;Laerm;49838;51.798;10.954;2024-01-15T04:04:15;53.13;40.10;70.50;;
63692;Laerm;49838;51.798;10.954;2024-01-15T04:06:44;46.90;37.59;67.31;;
63692;Laerm;49838;51.798;10.954;2024-01-15T04:09:11;53.45;39.75;69.86;;
63692;Laerm;49838;51.798;10.954;2024-01-15T04:11:39;53.67;40.91;72.73;;
63692;Laerm;49838;51.798;10.954;2024-01-15T04:14:06;52.03;42.55;69.63;;
63692;Laerm;49838;51.798;10.954;2024-01-15T04:16:34;53.67;42.15;73.61;;
63692;Laerm;49838;51.798;10.954;2024-01-15T04:19:01;59.41;41.38;82.81;;
63692;Laerm;49838;51.798;10.954;2024-01-15T04:21:28;52.49;41.80;73.23;;
63692;Laerm;49838;51.798;10.954;2024-01-15T04:23:57;51.26;40.27;65.96;;
63692;Laerm;49838;51.798;10.954;2024-01-15T04:26:24;54.97;43.65;73.32;;
63692;Laerm;49838;51.798;10.954;2024-01-15T04:28:51;52.91;41.12;70.74;;
63692;Laerm;49838;51.798;10.954;2024-01-15T04:31:22;52.27;40.02;68.56;;
63692;Laerm;49838;51.798;10.954;2024-01-15T04:33:50;47.74;40.38;62.98;;
63692;Laerm;49838;51.798;10.954;2024-01-15T04:36:18;58.54;42.60;72.18;;
63692;Laerm;49838;51.798;10.954;2024-01-15T04:38:45;50.16;41.86;66.89;;
63692;Laerm;49838;51.798;10.954;2024-01-15T04:41:15;49.22;41.63;68.88;;
63692;Laerm;49838;51.798;10.954;2024-01-15T04:43:43;57.20;40.86;78.24;;
63692;Laerm;49838;51.798;10.954;2024-01-15T04:46:10;54.91;42.29;71.53;;
63692;Laerm;49838;51.798;10.954;2024-01-15T04:48:38;52.83;40.90;70.09;;
63692;Laerm;49838;51.798;10.954;2024-01-15T04:51:05;54.54;42.75;71.73;;
63692;Laerm;49838;51.798;10.954;2024-01-15T04:53:34;59.78;41.96;76.26;;
63692;Laerm;49838;51.798;10.954;2024-01-15T04:56:01;53.11;41.20;69.91;;
63692;Laerm;49838;51.798;10.954;2024-01-15T04:58:30;65.39;39.96;82.71;;
63692;Laerm;49838;51.798;10.954;2024-01-15T05:00:57;54.89;40.83;70.80;;
63692;Laerm;49838;51.798;10.954;2024-01-15T05:03:25;49.76;39.28;69.27;;
63692;Laerm;49838;51.798;10.954;2024-01-15T05:05:52;43.38;35.98;62.29;;
63692;Laerm;49838;51.798;10.954;2024-01-15T05:08:19;44.68;37.72;60.35;;
63692;Laerm;49838;51.798;10.954;2024-01-15T05:10:47;51.36;38.09;71.04;;
63692;Laerm;49838;51.798;10.954;2024-01-15T05:13:14;52.28;39.11;68.55;;
63692;Laerm;49838;51.798;10.954;2024-01-15T05:15:43;57.50;38.31;76.19;;
63692;Laerm;49838;51.798;10.954;2024-01-15T05:18:10;54.14;38.42;70.75;;
63692;Laerm;49838;51.798;10.954;2024-01-15T05:20:37;53.27;38.00;69.66;;
63692;Laerm;49838;51.798;10.954;2024-01-15T05:23:04;53.97;39.08;72.19;;
63692;Laerm;49838;51.798;10.954;2024-01-15T05:25:32;47.76;39.46;69.05;;
63692;Laerm;49838;51.798;10.954;2024-01-15T05:27:59;61.19;44.51;73.91;;
63692;Laerm;49838;51.798;10.954;2024-01-15T05:30:27;55.68;43.33;70.78;;
63692;Laerm;49838;51.798;10.954;2024-01-15T05:32:55;57.50;41.92;72.60;;
63692;Laerm;49838;51.798;10.954;2024-01-15T05:35:23;60.54;41.47;77.63;;
63692;Laerm;49838;51.798;10.954;2024-01-15T05:37:50;53.09;40.98;68.22;;
63692;Laerm;49838;51.798;10.954;2024-01-15T05:40:18;59.58;42.58;75.40;;
63692;Laerm;49838;51.798;10.954;2024-01-15T05:42:45;56.90;40.12;72.90;;
63692;Laerm;49838;51.798;10.954;2024-01-15T05:45:12;56.90;40.01;73.16;;
63692;Laerm;49838;51.798;10.954;2024-01-15T05:47:39;56.88;40.86;72.11;;
63692;Laerm;49838;51.798;10.954;2024-01-15T05:50:08;56.75;41.54;74.06;;
63692;Laerm;49838;51.798;10.954;2024-01-15T05:52:36;57.71;41.44;76.59;;
63692;Laerm;49838;51.798;10.954;2024-01-15T05:55:04;60.31;43.63;76.91;;
63692;Laerm;49838;51.798;10.954;2024-01-15T05:57:31;60.12;45.09;74.05;;
63692;Laerm;49838;51.798;10.954;2024-01-15T05:59:59;58.04;43.23;73.87;;
63692;Laerm;49838;51.798;10.954;2024-01-15T06:02:27;54.82;42.26;72.41;;
63692;Laerm;49838;51.798;10.954;2024-01-15T06:04:54;57.71;39.56;74.92;;
63692;Laerm;49838;51.798;10.954;2024-01-15T06:07:22;56.06;39.38;72.14;;
63692;Laerm;49838;51.798;10.954;2024-01-15T06:09:50;59.82;42.93;74.06;;
63692;Laerm;49838;51.798;10.954;2024-01-15T06:12:17;61.73;42.97;78.69;;
63692;Laerm;49838;51.798;10.954;2024-01-15T06:14:44;61.87;41.97;76.47;;
63692;Laerm;49838;51.798;10.954;2024-01-15T06:17:11;60.06;42.51;72.16;;
63692;Laerm;49838;51.798;10.954;2024-01-15T06:19:38;58.38;43.38;72.97;;
63692;Laerm;49838;51.798;10.954;2024-01-15T06:22:06;60.82;42.69;79.25;;
63692;Laerm;49838;51.798;10.954;2024-01-15T06:24:34;62.94;39.39;77.10;;
63692;Laerm;49838;51.798;10.954;2024-01-15T06:27:02;63.19;41.94;75.73;;
63692;Laerm;49838;51.798;10.954;2024-01-15T06:29:29;57.65;39.69;75.09;;
63692;Laerm;49838;51.798;10.954;2024-01-15T06:31:57;58.39;40.69;74.75;;
63692;Laerm;49838;51.798;10.954;2024-01-15T06:34:24;60.77;38.87;78.69;;
63692;Laerm;49838;51.798;10.954;2024-01-15T06:36:51;63.84;41.26;82.39;;
63692;Laerm;49838;51.798;10.954;2024-01-15T06:39:18;59.45;41.18;72.68;;
63692;Laerm;49838;51.798;10.954;2024-01-15T06:41:47;59.64;40.92;76.42;;
63692;Laerm;49838;51.798;10.954;2024-01-15T06:44:14;56.17;39.35;74.62;;
63692;Laerm;49838;51.798;10.954;2024-01-15T06:46:42;56.72;39.43;76.96;;
63692;Laerm;49838;51.798;10.954;2024-01-15T06:49:10;60.53;42.61;78.91;;
63692;Laerm;49838;51.798;10.954;2024-01-15T06:51:37;58.27;39.51;74.29;;
63692;Laerm;49838;51.798;10.954;2024-01-15T06:54:05;67.49;43.60;81.30;;
63692;Laerm;49838;51.798;10.954;2024-01-15T06:56:32;58.74;44.27;74.08;;
63692;Laerm;49838;51.798;10.954;2024-01-15T06:59:01;58.73;44.54;73.57;;
63692;Laerm;49838;51.798;10.954;2024-01-15T07:01:29;64.22;43.04;80.54;;
63692;Laerm;49838;51.798;10.954;2024-01-15T07:03:56;62.65;42.54;79.07;;
63692;Laerm;49838;51.798;10.954;2024-01-15T07:06:24;61.94;43.24;74.73;;
63692;Laerm;49838;51.798;10.954;2024-01-15T07:08:51;58.39;43.26;77.54;;
63692;Laerm;49838;51.798;10.954;2024-01-15T07:11:18;55.93;40.83;75.04;;
63692;Laerm;49838;51.798;10.954;2024-01-15T07:13:45;49.01;38.46;66.16;;
63692;Laerm;49838;51.798;10.954;2024-01-15T07:16:14;57.35;40.84;75.13;;
63692;Laerm;49838;51.798;10.954;2024-01-15T07:18:41;52.84;40.00;71.29;;
63692;Laerm;49838;51.798;10.954;2024-01-15T07:21:09;47.50;41.75;63.98;;
63692;Laerm;49838;51.798;10.954;2024-01-15T07:23:36;63.59;41.06;76.60;;
63692;Laerm;49838;51.798;10.954;2024-01-15T07:26:03;60.67;41.77;73.13;;
63692;Laerm;49838;51.798;10.954;2024-01-15T07:28:31;64.94;43.38;82.47;;
63692;Laerm;49838;51.798;10.954;2024-01-15T07:30:58;47.91;40.66;61.86;;
63692;Laerm;49838;51.798;10.954;2024-01-15T07:33:28;59.64;38.78;73.33;;
63692;Laerm;49838;51.798;10.954;2024-01-15T07:35:55;62.03;38.84;79.17;;
63692;Laerm;49838;51.798;10.954;2024-01-15T07:38:23;49.94;38.44;67.11;;
63692;Laerm;49838;51.798;10.954;2024-01-15T07:40:50;60.19;38.92;77.18;;
63692;Laerm;49838;51.798;10.954;2024-01-15T07:43:17;52.92;40.12;68.75;;
63692;Laerm;49838;51.798;10.954;2024-01-15T07:45:44;62.72;39.10;74.81;;
63692;Laerm;49838;51.798;10.954;2024-01-15T07:48:12;55.57;38.72;77.01;;
63692;Laerm;49838;51.798;10.954;2024-01-15T07:50:41;54.72;39.59;76.65;;
63692;Laerm;49838;51.798;10.954;2024-01-15T07:53:08;51.61;39.11;69.16;;
63692;Laerm;49838;51.798;10.954;2024-01-15T07:55:36;58.18;40.51;77.81;;
63692;Laerm;49838;51.798;10.954;2024-01-15T07:58:03;56.78;40.65;71.88;;
63692;Laerm;49838;51.798;10.954;2024-01-15T08:00:31;61.64;40.41;78.66;;
63692;Laerm;49838;51.798;10.954;2024-01-15T08:02:58;54.56;40.46;70.70;;
63692;Laerm;49838;51.798;10.954;2024-01-15T08:05:25;58.46;39.34;77.47;;
63692;Laerm;49838;51.798;10.954;2024-01-15T08:07:55;64.43;39.95;82.78;;
63692;Laerm;49838;51.798;10.954;2024-01-15T08:10:22;58.13;39.69;75.59;;
63692;Laerm;49838;51.798;10.954;2024-01-15T08:12:49;57.03;40.14;71.21;;
63692;Laerm;49838;51.798;10.954;2024-01-15T08:15:17;56.32;40.55;72.14;;
63692;Laerm;49838;51.798;10.954;2024-01-15T08:17:44;57.84;42.48;70.98;;
63692;Laerm;49838;51.798;10.954;2024-01-15T08:20:11;58.20;38.96;77.34;;
63692;Laerm;49838;51.798;10.954;2024-01-15T08:22:39;58.56;39.46;74.38;;
63692;Laerm;49838;51.798;10.954;2024-01-15T08:25:08;58.28;39.87;76.11;;
63692;Laerm;49838;51.798;10.954;2024-01-15T08:27:37;61.03;40.92;80.84;;
63692;Laerm;49838;51.798;10.954;2024-01-15T08:30:05;60.26;40.49;76.54;;
63692;Laerm;49838;51.798;10.954;2024-01-15T08:32:32;60.71;38.61;76.82;;
63692;Laerm;49838;51.798;10.954;2024-01-15T08:35:02;60.58;38.75;76.49;;
63692;Laerm;49838;51.798;10.954;2024-01-15T08:37:30;56.64;39.84;72.79;;
63692;Laerm;49838;51.798;10.954;2024-01-15T08:39:57;59.80;39.64;78.22;;
63692;Laerm;49838;51.798;10.954;2024-01-15T08:42:26;60.05;39.87;74.01;;
63692;Laerm;49838;51.798;10.954;2024-01-15T08:44:53;63.25;41.01;83.64;;
63692;Laerm;49838;51.798;10.954;2024-01-15T08:47:20;61.67;40.51;93.59;;
63692;Laerm;49838;51.798;10.954;2024-01-15T08:49:47;60.63;43.75;73.83;;
63692;Laerm;49838;51.798;10.954;2024-01-15T08:52:15;58.49;42.86;73.86;;
63692;Laerm;49838;51.798;10.954;2024-01-15T08:54:42;60.47;39.83;75.29;;
63692;Laerm;49838;51.798;10.954;2024-01-15T08:57:09;57.79;41.60;74.31;;
63692;Laerm;49838;51.798;10.954;2024-01-15T08:59:39;56.09;40.96;70.75;;
63692;Laerm;49838;51.798;10.954;2024-01-15T09:02:07;57.12;41.33;74.15;;
63692;Laerm;49838;51.798;10.954;2024-01-15T09:04:34;61.86;40.20;74.61;;
63692;Laerm;49838;51.798;10.954;2024-01-15T09:07:02;54.26;39.71;68.65;;
63692;Laerm;49838;51.798;10.954;2024-01-15T09:09:29;63.74;41.04;82.21;;
63692;Laerm;49838;51.798;10.954;2024-01-15T09:11:56;58.23;41.41;73.27;;
63692;Laerm;49838;51.798;10.954;2024-01-15T09:14:23;52.60;42.00;72.56;;
63692;Laerm;49838;51.798;10.954;2024-01-15T09:16:54;51.11;39.58;68.20;;
63692;Laerm;49838;51.798;10.954;2024-01-15T09:19:22;46.96;39.28;60.16;;
63692;Laerm;49838;51.798;10.954;2024-01-15T09:21:49;59.92;38.63;80.10;;
63692;Laerm;49838;51.798;10.954;2024-01-15T09:24:16;65.70;38.56;85.61;;
63692;Laerm;49838;51.798;10.954;2024-01-15T09:26:43;58.82;39.45;73.33;;
63692;Laerm;49838;51.798;10.954;2024-01-15T09:29:11;58.15;41.75;69.35;;
63692;Laerm;49838;51.798;10.954;2024-01-15T09:31:39;56.93;39.97;69.82;;
63692;Laerm;49838;51.798;10.954;2024-01-15T09:34:09;62.41;41.74;78.23;;
63692;Laerm;49838;51.798;10.954;2024-01-15T09:36:39;61.11;41.25;74.89;;
63692;Laerm;49838;51.798;10.954;2024-01-15T09:39:07;60.19;40.10;76.23;;
63692;Laerm;49838;51.798;10.954;2024-01-15T09:41:35;64.35;40.16;80.24;;
63692;Laerm;49838;51.798;10.954;2024-01-15T09:44:03;61.79;42.06;75.39;;
63692;Laerm;49838;51.798;10.954;2024-01-15T09:46:31;59.56;41.75;74.64;;
63692;Laerm;49838;51.798;10.954;2024-01-15T09:48:59;61.37;41.53;80.84;;
63692;Laerm;49838;51.798;10.954;2024-01-15T09:51:31;57.46;42.27;73.67;;
63692;Laerm;49838;51.798;10.954;2024-01-15T09:53:59;57.99;44.01;72.81;;
63692;Laerm;49838;51.798;10.954;2024-01-15T09:56:26;62.20;43.20;74.11;;
63692;Laerm;49838;51.798;10.954;2024-01-15T09:58:53;58.61;41.76;75.36;;
63692;Laerm;49838;51.798;10.954;2024-01-15T10:01:23;64.09;43.45;77.97;;
63692;Laerm;49838;51.798;10.954;2024-01-15T10:03:50;62.82;43.61;75.30;;
63692;Laerm;49838;51.798;10.954;2024-01-15T10:06:21;54.08;39.57;73.59;;
63692;Laerm;49838;51.798;10.954;2024-01-15T10:08:51;55.95;40.71;70.05;;
63692;Laerm;49838;51.798;10.954;2024-01-15T10:11:18;59.70;42.31;71.07;;
63692;Laerm;49838;51.798;10.954;2024-01-15T10:13:46;61.11;42.15;75.16;;
63692;Laerm;49838;51.798;10.954;2024-01-15T10:16:17;62.29;41.12;78.12;;
63692;Laerm;49838;51.798;10.954;2024-01-15T10:18:44;58.58;43.58;75.27;;
63692;Laerm;49838;51.798;10.954;2024-01-15T10:21:11;62.75;42.91;77.94;;
63692;Laerm;49838;51.798;10.954;2024-01-15T10:23:38;57.85;41.07;72.79;;
63692;Laerm;49838;51.798;10.954;2024-01-15T10:26:07;60.06;42.94;74.82;;
63692;Laerm;49838;51.798;10.954;2024-01-15T10:28:35;56.60;43.67;73.16;;
63692;Laerm;49838;51.798;10.954;2024-01-15T10:31:02;57.50;42.37;73.36;;
63692;Laerm;49838;51.798;10.954;2024-01-15T10:33:30;64.17;41.54;82.58;;
63692;Laerm;49838;51.798;10.954;2024-01-15T10:36:00;61.01;44.61;75.69;;
63692;Laerm;49838;51.798;10.954;2024-01-15T10:38:27;60.68;43.26;74.93;;
63692;Laerm;49838;51.798;10.954;2024-01-15T10:40:55;50.50;41.13;66.33;;
63692;Laerm;49838;51.798;10.954;2024-01-15T10:43:24;62.37;42.32;74.98;;
63692;Laerm;49838;51.798;10.954;2024-01-15T10:45:51;58.93;44.63;74.58;;
63692;Laerm;49838;51.798;10.954;2024-01-15T10:48:19;55.63;42.53;69.66;;
63692;Laerm;49838;51.798;10.954;2024-01-15T10:50:47;57.17;42.57;72.93;;
63692;Laerm;49838;51.798;10.954;2024-01-15T10:53:17;55.28;41.15;68.44;;
63692;Laerm;49838;51.798;10.954;2024-01-15T10:55:49;62.84;48.85;80.05;;
63692;Laerm;49838;51.798;10.954;2024-01-15T10:58:18;61.05;40.93;79.42;;
63692;Laerm;49838;51.798;10.954;2024-01-15T11:00:47;58.63;44.15;75.27;;
63692;Laerm;49838;51.798;10.954;2024-01-15T11:03:14;57.81;40.06;74.90;;
63692;Laerm;49838;51.798;10.954;2024-01-15T11:05:43;59.75;40.66;72.76;;
63692;Laerm;49838;51.798;10.954;2024-01-15T11:08:10;54.54;39.78;72.44;;
63692;Laerm;49838;51.798;10.954;2024-01-15T11:10:42;56.09;41.62;70.76;;
63692;Laerm;49838;51.798;10.954;2024-01-15T11:13:15;55.95;39.79;72.85;;
63692;Laerm;49838;51.798;10.954;2024-01-15T11:15:58;59.64;39.39;73.49;;
63692;Laerm;49838;51.798;10.954;2024-01-15T11:18:28;59.97;37.56;76.36;;
63692;Laerm;49838;51.798;10.954;2024-01-15T11:21:25;52.48;37.10;70.95;;
63692;Laerm;49838;51.798;10.954;2024-01-15T11:23:56;56.45;37.62;72.24;;
63692;Laerm;49838;51.798;10.954;2024-01-15T11:26:30;55.00;36.64;72.48;;
63692;Laerm;49838;51.798;10.954;2024-01-15T11:28:58;55.15;38.25;69.66;;
63692;Laerm;49838;51.798;10.954;2024-01-15T11:31:29;58.08;39.50;75.92;;
63692;Laerm;49838;51.798;10.954;2024-01-15T11:33:56;56.87;40.10;73.41;;
63692;Laerm;49838;51.798;10.954;2024-01-15T11:39:39;55.73;39.42;71.40;;
63692;Laerm;49838;51.798;10.954;2024-01-15T11:42:10;55.69;38.40;70.98;;
63692;Laerm;49838;51.798;10.954;2024-01-15T11:44:41;56.41;38.69;72.55;;
63692;Laerm;49838;51.798;10.954;2024-01-15T11:47:11;55.22;42.00;73.50;;
63692;Laerm;49838;51.798;10.954;2024-01-15T11:49:58;62.42;41.69;78.61;;
63692;Laerm;49838;51.798;10.954;2024-01-15T11:52:32;58.32;40.87;73.48;;
63692;Laerm;49838;51.798;10.954;2024-01-15T11:55:05;53.32;41.41;71.61;;
63692;Laerm;49838;51.798;10.954;2024-01-15T11:57:41;57.27;40.11;72.12;;
63692;Laerm;49838;51.798;10.954;2024-01-15T12:00:10;59.27;39.31;72.22;;
63692;Laerm;49838;51.798;10.954;2024-01-15T12:02:40;60.69;41.81;74.92;;
63692;Laerm;49838;51.798;10.954;2024-01-15T12:05:08;59.39;44.45;73.84;;
63692;Laerm;49838;51.798;10.954;2024-01-15T12:07:36;55.76;42.43;73.67;;
63692;Laerm;49838;51.798;10.954;2024-01-15T12:10:08;58.11;42.73;73.11;;
63692;Laerm;49838;51.798;10.954;2024-01-15T12:12:43;56.58;41.03;74.49;;
63692;Laerm;49838;51.798;10.954;2024-01-15T12:15:14;51.09;38.95;67.83;;
63692;Laerm;49838;51.798;10.954;2024-01-15T12:17:43;49.78;38.29;65.35;;
63692;Laerm;49838;51.798;10.954;2024-01-15T12:20:11;56.18;40.81;71.81;;
63692;Laerm;49838;51.798;10.954;2024-01-15T12:22:38;57.32;42.66;72.68;;
63692;Laerm;49838;51.798;10.954;2024-01-15T12:25:06;55.06;40.51;68.41;;
63692;Laerm;49838;51.798;10.954;2024-01-15T12:27:33;59.38;40.80;73.39;;
63692;Laerm;49838;51.798;10.954;2024-01-15T12:30:01;54.31;39.91;69.98;;
63692;Laerm;49838;51.798;10.954;2024-01-15T12:32:29;59.16;39.80;73.45;;
63692;Laerm;49838;51.798;10.954;2024-01-15T12:34:58;62.03;41.54;77.03;;
63692;Laerm;49838;51.798;10.954;2024-01-15T12:37:25;67.50;43.72;84.58;;
63692;Laerm;49838;51.798;10.954;2024-01-15T12:39:52;53.19;43.05;68.68;;
63692;Laerm;49838;51.798;10.954;2024-01-15T12:42:21;55.40;39.98;71.11;;
63692;Laerm;49838;51.798;10.954;2024-01-15T12:44:48;55.99;38.35;71.05;;
63692;Laerm;49838;51.798;10.954;2024-01-15T12:47:16;63.70;40.70;85.76;;
63692;Laerm;49838;51.798;10.954;2024-01-15T12:49:46;60.67;41.58;74.55;;
63692;Laerm;49838;51.798;10.954;2024-01-15T12:52:18;59.26;41.82;76.18;;
63692;Laerm;49838;51.798;10.954;2024-01-15T12:54:46;57.39;41.45;70.38;;
63692;Laerm;49838;51.798;10.954;2024-01-15T12:57:13;60.21;42.60;72.90;;
63692;Laerm;49838;51.798;10.954;2024-01-15T12:59:40;62.96;40.99;81.75;;
63692;Laerm;49838;51.798;10.954;2024-01-15T13:02:08;47.27;39.12;65.92;;
63692;Laerm;49838;51.798;10.954;2024-01-15T13:04:35;52.69;41.41;69.49;;
63692;Laerm;49838;51.798;10.954;2024-01-15T13:07:03;54.30;41.37;69.20;;
63692;Laerm;49838;51.798;10.954;2024-01-15T13:09:31;52.11;38.45;68.88;;
63692;Laerm;49838;51.798;10.954;2024-01-15T13:11:59;58.25;40.82;72.17;;
63692;Laerm;49838;51.798;10.954;2024-01-15T13:14:27;52.82;38.53;69.55;;
63692;Laerm;49838;51.798;10.954;2024-01-15T13:16:55;57.47;40.92;71.95;;
63692;Laerm;49838;51.798;10.954;2024-01-15T13:19:22;53.87;41.68;70.18;;
63692;Laerm;49838;51.798;10.954;2024-01-15T13:21:50;58.44;42.76;73.98;;
63692;Laerm;49838;51.798;10.954;2024-01-15T13:24:17;59.75;39.52;75.15;;
63692;Laerm;49838;51.798;10.954;2024-01-15T13:26:46;56.79;38.67;72.12;;
63692;Laerm;49838;51.798;10.954;2024-01-15T13:29:13;50.43;40.33;69.11;;
63692;Laerm;49838;51.798;10.954;2024-01-15T13:31:41;61.35;44.35;75.49;;
63692;Laerm;49838;51.798;10.954;2024-01-15T13:34:08;61.54;46.62;75.47;;
63692;Laerm;49838;51.798;10.954;2024-01-15T13:36:36;57.14;42.85;71.35;;
63692;Laerm;49838;51.798;10.954;2024-01-15T13:39:04;59.41;45.22;76.08;;